Time;durP1;ratioP1;P1;durP2;ratioP2;P2;SDS_P1;SDS_P2;PMS_P1;PMS_P2;Temp;Humidity;BMP_temperature;BMP_pressure;BME280_temperature;BME280_humidity;BME280_pressure;Samples;Min_cycle;Max_cycle;Signal;HPM_P1;HPM_P2
2023/02/11 00:01:26;;;;;;;24.80;10.93;;;2.90;99.90;;;;;;4982390;28;20313;-69
2023/02/11 00:03:52;;;;;;;28.27;11.27;;;2.80;99.90;;;;;;4992270;28;20314;-69
2023/02/11 00:06:19;;;;;;;13.87;6.33;;;2.80;99.90;;;;;;4978766;28;20198;-69
2023/02/11 00:08:46;;;;;;;9.97;5.73;;;2.80;99.90;;;;;;4980718;28;20185;-69
2023/02/11 00:11:19;;;;;;;7.37;5.17;;;2.80;99.90;;;;;;4980203;28;20190;-69
2023/02/11 00:13:47;;;;;;;8.63;5.50;;;2.80;99.90;;;;;;4978048;28;20189;-69
2023/02/11 00:16:18;;;;;;;11.13;5.73;;;2.90;99.90;;;;;;4980104;28;20575;-69
2023/02/11 00:18:45;;;;;;;9.10;5.83;;;2.80;99.90;;;;;;4980883;28;20198;-69
2023/02/11 00:21:15;;;;;;;7.47;4.77;;;2.80;99.90;;;;;;4980902;28;20244;-69
2023/02/11 00:23:42;;;;;;;10.73;6.07;;;2.80;99.90;;;;;;4980711;28;20235;-69
2023/02/11 00:26:33;;;;;;;14.83;6.97;;;2.80;99.90;;;;;;4978862;28;20194;-69
2023/02/11 00:29:00;;;;;;;13.90;7.00;;;2.90;99.90;;;;;;4977046;28;20193;-69
2023/02/11 00:31:27;;;;;;;11.97;6.63;;;2.90;99.90;;;;;;4980972;28;20189;-69
2023/02/11 00:33:54;;;;;;;10.40;6.40;;;3.10;99.90;;;;;;4977369;28;20217;-69
2023/02/11 00:36:27;;;;;;;15.70;7.90;;;3.20;99.90;;;;;;4979494;28;20186;-69
2023/02/11 00:38:55;;;;;;;11.13;6.63;;;3.30;99.90;;;;;;4977104;28;22042;-69
2023/02/11 00:41:22;;;;;;;12.07;7.00;;;3.40;99.90;;;;;;4982282;28;20260;-69
2023/02/11 00:43:49;;;;;;;16.50;7.70;;;3.40;99.90;;;;;;4978442;28;20188;-69
2023/02/11 00:46:16;;;;;;;14.20;8.10;;;3.40;99.90;;;;;;4978942;28;20190;-69
2023/02/11 00:48:45;;;;;;;11.50;6.63;;;3.40;99.90;;;;;;4977822;28;20201;-69
2023/02/11 00:51:12;;;;;;;11.27;6.67;;;3.50;99.90;;;;;;4978215;28;20505;-69
2023/02/11 00:53:39;;;;;;;12.30;7.67;;;3.50;99.90;;;;;;4978849;28;20424;-69
2023/02/11 00:56:06;;;;;;;13.27;7.10;;;3.50;99.90;;;;;;4981063;28;20221;-69
2023/02/11 00:58:32;;;;;;;9.23;6.37;;;3.40;99.90;;;;;;4979844;28;20185;-69
2023/02/11 01:00:59;;;;;;;11.10;7.00;;;3.40;99.90;;;;;;4977809;28;20206;-69
2023/02/11 01:03:25;;;;;;;11.97;7.27;;;3.40;99.90;;;;;;4980742;28;20711;-69
2023/02/11 01:05:51;;;;;;;11.40;7.03;;;3.40;99.90;;;;;;4975804;28;20185;-69
2023/02/11 01:08:23;;;;;;;10.67;6.80;;;3.30;99.90;;;;;;4973815;28;20579;-69
2023/02/11 01:10:59;;;;;;;13.80;6.93;;;3.30;99.90;;;;;;4977566;28;20205;-68
2023/02/11 01:13:28;;;;;;;42.00;17.57;;;3.30;99.90;;;;;;4975867;28;20266;-68
2023/02/11 01:15:55;;;;;;;55.07;23.47;;;3.20;99.90;;;;;;4973357;28;20268;-69
2023/02/11 01:18:22;;;;;;;39.53;18.07;;;3.10;99.90;;;;;;4980744;28;20192;-69
2023/02/11 01:20:49;;;;;;;29.33;13.67;;;3.00;99.90;;;;;;4979138;28;20200;-69
2023/02/11 01:23:15;;;;;;;22.80;10.97;;;3.00;99.90;;;;;;4975718;28;20252;-69
2023/02/11 01:25:42;;;;;;;13.90;7.67;;;3.00;99.90;;;;;;4988606;28;20269;-68
2023/02/11 01:28:17;;;;;;;10.93;5.93;;;3.00;99.90;;;;;;4974039;28;20178;-69
2023/02/11 01:30:44;;;;;;;18.27;8.90;;;3.10;99.90;;;;;;4959408;28;20646;-69
2023/02/11 01:33:10;;;;;;;22.67;9.83;;;3.10;99.90;;;;;;4977033;28;20284;-69
2023/02/11 01:35:38;;;;;;;16.50;8.23;;;3.10;99.90;;;;;;4977154;28;20190;-69
2023/02/11 01:38:15;;;;;;;20.93;9.50;;;3.10;99.90;;;;;;4977835;28;20345;-69
2023/02/11 01:40:51;;;;;;;15.20;6.90;;;3.10;99.90;;;;;;4979763;28;20283;-69
2023/02/11 01:43:18;;;;;;;15.60;8.30;;;3.10;99.90;;;;;;4975260;28;20217;-69
2023/02/11 01:45:45;;;;;;;14.93;7.80;;;3.10;99.90;;;;;;4973189;28;20204;-69
2023/02/11 01:48:28;;;;;;;22.90;9.20;;;3.10;99.90;;;;;;4979891;28;20348;-69
2023/02/11 01:51:03;;;;;;;51.03;19.53;;;3.10;99.90;;;;;;4978124;28;20194;-69
2023/02/11 01:59:13;;;;;;;20.20;8.60;;;3.00;99.90;;;;;;4978370;28;20566;-69
2023/02/11 02:01:48;;;;;;;29.33;11.80;;;2.90;99.90;;;;;;4979911;28;20205;-69
2023/02/11 02:04:19;;;;;;;22.27;9.97;;;2.90;99.90;;;;;;4996144;28;20180;-69
2023/02/11 02:06:58;;;;;;;25.87;9.77;;;3.00;99.90;;;;;;4977137;28;20558;-69
2023/02/11 02:09:41;;;;;;;23.57;11.00;;;3.00;99.90;;;;;;4976761;28;20832;-69
2023/02/11 02:12:07;;;;;;;14.90;8.47;;;2.90;99.90;;;;;;4976670;28;20201;-69
2023/02/11 02:14:39;;;;;;;25.73;12.57;;;2.90;99.90;;;;;;4979139;28;20243;-69
2023/02/11 02:17:08;;;;;;;51.30;20.80;;;2.90;99.90;;;;;;4976842;28;20229;-69
2023/02/11 02:20:16;;;;;;;24.03;11.57;;;2.80;99.90;;;;;;4981168;28;20296;-69
2023/02/11 02:23:36;;;;;;;21.30;9.87;;;2.80;99.90;;;;;;4979030;28;20237;-70
2023/02/11 02:26:37;;;;;;;36.73;17.77;;;2.80;99.90;;;;;;4951036;28;20270;-69
2023/02/11 02:29:40;;;;;;;31.47;14.10;;;2.80;99.90;;;;;;4980862;28;20193;-69
2023/02/11 02:32:40;;;;;;;17.50;8.73;;;2.80;99.90;;;;;;4978397;28;20667;-69
2023/02/11 02:35:28;;;;;;;20.60;9.17;;;2.90;99.90;;;;;;4978776;28;20189;-70
2023/02/11 02:38:29;;;;;;;32.33;13.33;;;2.90;99.90;;;;;;4977576;28;20260;-69
2023/02/11 02:41:15;;;;;;;29.77;12.07;;;2.90;99.90;;;;;;4961394;28;20279;-69
2023/02/11 02:43:47;;;;;;;19.67;9.90;;;2.90;99.90;;;;;;4982092;28;20216;-69
2023/02/11 02:46:18;;;;;;;32.27;13.53;;;2.90;99.90;;;;;;4982393;28;20182;-69
2023/02/11 02:48:46;;;;;;;46.93;19.37;;;2.90;99.90;;;;;;4998120;28;20852;-69
2023/02/11 02:51:37;;;;;;;30.87;14.50;;;2.90;99.90;;;;;;4982113;28;20529;-69
2023/02/11 02:54:36;;;;;;;15.83;9.37;;;2.90;99.90;;;;;;4997636;28;20870;-69
2023/02/11 02:57:45;;;;;;;14.03;7.90;;;2.90;99.90;;;;;;4980201;28;20217;-69
2023/02/11 03:00:42;;;;;;;34.67;15.63;;;2.80;99.90;;;;;;4988328;28;20281;-69
2023/02/11 03:03:54;;;;;;;35.27;15.83;;;2.80;99.90;;;;;;4948954;28;20656;-69
2023/02/11 03:06:38;;;;;;;29.30;13.60;;;2.80;99.90;;;;;;4999667;28;20188;-70
2023/02/11 03:09:39;;;;;;;40.97;18.20;;;2.90;99.90;;;;;;4980979;28;20355;-69
2023/02/11 03:12:07;;;;;;;55.77;22.33;;;2.80;99.90;;;;;;4979330;28;20277;-70
2023/02/11 03:14:36;;;;;;;37.47;15.77;;;2.80;99.90;;;;;;4984919;28;20193;-69
2023/02/11 03:17:07;;;;;;;21.53;10.00;;;2.80;99.90;;;;;;4982466;28;20247;-69
2023/02/11 03:19:45;;;;;;;26.47;12.90;;;2.80;99.90;;;;;;4998494;28;20606;-69
2023/02/11 03:22:24;;;;;;;11.43;6.83;;;2.80;99.90;;;;;;4965774;28;20304;-69
2023/02/11 03:24:50;;;;;;;16.30;7.30;;;2.80;99.90;;;;;;4982764;28;20193;-69
2023/02/11 03:28:02;;;;;;;24.63;10.90;;;2.70;99.90;;;;;;4976144;28;20186;-69
2023/02/11 03:31:13;;;;;;;19.13;9.87;;;2.80;99.90;;;;;;4978563;28;20663;-69
2023/02/11 03:34:08;;;;;;;16.20;9.17;;;2.90;99.90;;;;;;4961757;28;20305;-69
2023/02/11 03:37:27;;;;;;;30.60;14.47;;;2.90;99.90;;;;;;4980428;28;20248;-69
2023/02/11 03:40:07;;;;;;;58.13;26.83;;;2.90;99.90;;;;;;4965076;28;20570;-69
2023/02/11 03:42:49;;;;;;;35.03;14.30;;;2.80;99.90;;;;;;4984885;28;20202;-69
2023/02/11 03:45:21;;;;;;;32.07;12.83;;;2.80;99.90;;;;;;4981542;28;20212;-69
2023/02/11 03:48:19;;;;;;;21.87;11.50;;;2.90;99.90;;;;;;4978589;28;20189;-69
2023/02/11 03:50:49;;;;;;;37.73;17.70;;;2.90;99.90;;;;;;4946949;28;20208;-69
2023/02/11 03:53:16;;;;;;;57.97;24.77;;;2.90;99.90;;;;;;4978289;28;20321;-69
2023/02/11 03:55:46;;;;;;;42.93;21.93;;;2.80;99.90;;;;;;4980082;28;20288;-69
2023/02/11 03:58:12;;;;;;;45.77;21.17;;;2.80;99.90;;;;;;4984164;28;20263;-69
2023/02/11 04:00:42;;;;;;;33.27;18.93;;;2.90;99.90;;;;;;4984541;28;20216;-69
2023/02/11 04:03:09;;;;;;;28.57;16.00;;;2.90;99.90;;;;;;4981355;28;20878;-70
2023/02/11 04:05:36;;;;;;;18.70;11.70;;;2.90;99.90;;;;;;4984957;28;20585;-70
2023/02/11 04:08:04;;;;;;;23.80;12.70;;;2.90;99.90;;;;;;4982732;28;20268;-70
2023/02/11 04:10:31;;;;;;;75.43;33.53;;;2.70;99.90;;;;;;4992736;28;20209;-70
2023/02/11 04:12:57;;;;;;;126.50;58.53;;;2.40;99.90;;;;;;4983798;28;20221;-69
2023/02/11 04:15:24;;;;;;;120.17;51.57;;;2.10;99.90;;;;;;4977945;28;20194;-69
2023/02/11 04:17:50;;;;;;;32.33;14.83;;;1.90;99.90;;;;;;4982719;28;20636;-69
2023/02/11 04:20:17;;;;;;;21.10;11.50;;;1.80;99.90;;;;;;4980888;28;20548;-69
2023/02/11 04:22:43;;;;;;;34.53;17.07;;;1.70;99.90;;;;;;4981445;28;20619;-69
2023/02/11 04:25:10;;;;;;;38.17;19.10;;;1.70;99.90;;;;;;4982594;28;20293;-69
2023/02/11 04:27:37;;;;;;;30.27;14.70;;;1.60;99.90;;;;;;4984453;28;20212;-69
2023/02/11 04:30:05;;;;;;;33.80;16.90;;;1.90;99.90;;;;;;4977953;28;20188;-69
2023/02/11 04:32:31;;;;;;;31.70;17.27;;;1.90;99.90;;;;;;4981211;28;20189;-69
2023/02/11 04:35:00;;;;;;;35.37;19.77;;;1.90;99.90;;;;;;4981466;28;20675;-69
2023/02/11 04:37:26;;;;;;;33.60;17.00;;;1.80;99.90;;;;;;4983399;28;20193;-70
2023/02/11 04:39:53;;;;;;;29.53;16.47;;;1.70;99.90;;;;;;4981526;28;20425;-69
2023/02/11 04:42:19;;;;;;;36.47;18.97;;;1.80;99.90;;;;;;4981073;28;20225;-69
2023/02/11 04:44:45;;;;;;;25.83;15.93;;;1.90;99.90;;;;;;4980106;28;20185;-69
2023/02/11 04:47:14;;;;;;;29.47;14.97;;;1.80;99.90;;;;;;4982089;28;20705;-69
2023/02/11 04:49:41;;;;;;;43.13;21.33;;;1.80;99.90;;;;;;4986402;28;20186;-69
2023/02/11 04:52:07;;;;;;;28.40;15.27;;;1.90;99.90;;;;;;4983694;28;20342;-69
2023/02/11 04:54:34;;;;;;;52.70;26.87;;;2.00;99.90;;;;;;4997260;28;20269;-69
2023/02/11 04:57:00;;;;;;;57.57;29.60;;;1.90;99.90;;;;;;4982187;28;20216;-69
2023/02/11 04:59:26;;;;;;;43.30;22.00;;;2.00;99.90;;;;;;4979699;28;20194;-69
2023/02/11 05:01:53;;;;;;;26.07;15.60;;;2.00;99.90;;;;;;4977262;28;20224;-69
2023/02/11 05:04:19;;;;;;;30.13;15.70;;;2.20;99.90;;;;;;4981701;28;20190;-69
2023/02/11 05:06:45;;;;;;;37.17;15.60;;;2.60;99.90;;;;;;4991312;28;20177;-69
2023/02/11 05:09:12;;;;;;;25.17;14.27;;;2.50;99.90;;;;;;4979810;28;20926;-69
2023/02/11 05:11:39;;;;;;;25.10;14.60;;;2.30;99.90;;;;;;4996323;28;20174;-69
2023/02/11 05:14:06;;;;;;;17.97;8.90;;;2.00;99.90;;;;;;4981944;28;20634;-69
2023/02/11 05:16:33;;;;;;;14.70;7.70;;;1.90;99.90;;;;;;4982073;28;20186;-69
2023/02/11 05:18:59;;;;;;;15.53;10.47;;;2.00;99.90;;;;;;4979771;28;20194;-69
2023/02/11 05:21:26;;;;;;;45.23;23.07;;;2.00;99.90;;;;;;4981716;28;20230;-69
2023/02/11 05:23:52;;;;;;;58.30;27.07;;;2.00;99.90;;;;;;4977061;28;20217;-70
2023/02/11 05:26:18;;;;;;;64.23;30.83;;;2.00;99.90;;;;;;4981100;28;20647;-70
2023/02/11 05:28:45;;;;;;;60.53;31.50;;;2.00;99.90;;;;;;4977344;28;20197;-69
2023/02/11 05:31:13;;;;;;;29.93;16.03;;;1.90;99.90;;;;;;4978437;28;21130;-69
2023/02/11 05:33:45;;;;;;;35.40;17.23;;;1.90;99.90;;;;;;4981523;28;20225;-69
2023/02/11 05:36:12;;;;;;;48.70;23.23;;;1.90;99.90;;;;;;4981814;28;20225;-69
2023/02/11 05:38:42;;;;;;;40.03;17.10;;;1.90;99.90;;;;;;4983112;28;20185;-69
2023/02/11 05:41:09;;;;;;;49.90;22.47;;;1.90;99.90;;;;;;4980781;28;20193;-69
2023/02/11 05:43:36;;;;;;;34.97;17.03;;;2.00;99.90;;;;;;4979778;28;20214;-69
2023/02/11 05:46:04;;;;;;;31.53;15.90;;;2.10;99.90;;;;;;4979614;28;20185;-69
2023/02/11 05:48:30;;;;;;;13.60;8.67;;;2.20;99.90;;;;;;4980337;28;20189;-69
2023/02/11 05:50:57;;;;;;;11.93;7.60;;;2.80;99.90;;;;;;4983084;28;20209;-69
2023/02/11 05:53:24;;;;;;;14.53;7.97;;;2.90;99.90;;;;;;4978078;28;20194;-69
2023/02/11 05:55:50;;;;;;;14.40;7.23;;;2.80;99.90;;;;;;4982688;28;20315;-69
2023/02/11 05:58:17;;;;;;;11.03;6.87;;;2.90;99.90;;;;;;4968874;28;20201;-69
2023/02/11 06:00:45;;;;;;;9.93;6.47;;;2.80;99.90;;;;;;4996124;28;20320;-69
2023/02/11 06:03:12;;;;;;;10.80;7.17;;;2.80;99.90;;;;;;4979377;28;20201;-69
2023/02/11 06:05:38;;;;;;;12.33;7.10;;;2.80;99.90;;;;;;4979997;28;20252;-69
2023/02/11 06:08:04;;;;;;;11.83;6.87;;;2.90;99.90;;;;;;4978881;28;20621;-69
2023/02/11 06:10:30;;;;;;;10.43;6.93;;;2.90;99.90;;;;;;4981843;28;20190;-69
2023/02/11 06:12:57;;;;;;;15.43;7.67;;;3.00;99.90;;;;;;4980603;28;20201;-69
2023/02/11 06:15:23;;;;;;;10.77;7.50;;;3.00;99.90;;;;;;4980104;28;20183;-69
2023/02/11 06:17:49;;;;;;;13.90;6.47;;;3.10;99.90;;;;;;4981069;28;20197;-69
2023/02/11 06:20:16;;;;;;;13.43;7.80;;;3.10;99.90;;;;;;4994365;28;20224;-69
2023/02/11 06:22:42;;;;;;;13.30;7.90;;;3.40;99.90;;;;;;4987535;28;20206;-70
2023/02/11 06:25:09;;;;;;;12.67;6.97;;;3.50;99.90;;;;;;4979774;28;20587;-69
2023/02/11 06:27:36;;;;;;;15.77;7.93;;;3.50;99.90;;;;;;4984850;28;20189;-69
2023/02/11 06:30:08;;;;;;;10.43;6.90;;;4.00;99.90;;;;;;4984299;28;20193;-69
2023/02/11 06:32:37;;;;;;;12.33;7.70;;;4.20;99.90;;;;;;4981255;28;20189;-69
2023/02/11 06:35:06;;;;;;;9.77;6.60;;;4.30;99.90;;;;;;4983492;28;20574;-69
2023/02/11 06:37:38;;;;;;;13.43;6.60;;;4.30;99.90;;;;;;4984042;28;20201;-69
2023/02/11 06:40:05;;;;;;;9.43;6.87;;;4.60;99.90;;;;;;4983321;28;20284;-69
2023/02/11 06:42:34;;;;;;;8.40;5.60;;;4.50;99.90;;;;;;4990199;28;20257;-69
2023/02/11 06:45:01;;;;;;;8.33;5.67;;;4.60;99.90;;;;;;4983467;28;20181;-69
2023/02/11 06:47:27;;;;;;;12.13;6.07;;;4.50;99.90;;;;;;4983074;28;20190;-69
2023/02/11 06:49:54;;;;;;;12.30;5.80;;;4.60;99.90;;;;;;4987042;28;20233;-69
2023/02/11 06:52:20;;;;;;;9.47;6.43;;;4.70;99.90;;;;;;4983252;28;20408;-69
2023/02/11 06:54:46;;;;;;;10.90;5.40;;;4.90;99.90;;;;;;4981825;28;20185;-69
2023/02/11 06:57:12;;;;;;;10.63;6.00;;;5.00;99.90;;;;;;4983005;28;20288;-69
2023/02/11 06:59:39;;;;;;;9.87;6.53;;;5.10;99.90;;;;;;4985814;28;20192;-69
2023/02/11 07:02:08;;;;;;;11.27;5.43;;;5.10;99.90;;;;;;4977081;28;20213;-69
2023/02/11 07:04:34;;;;;;;13.27;5.73;;;5.00;99.90;;;;;;4983996;28;20190;-69
2023/02/11 07:07:01;;;;;;;11.13;5.30;;;5.00;99.90;;;;;;4979573;28;20192;-69
2023/02/11 07:09:27;;;;;;;8.27;5.40;;;5.10;99.90;;;;;;4984965;28;20196;-69
2023/02/11 07:11:53;;;;;;;8.80;4.87;;;5.10;99.90;;;;;;4985366;28;20220;-69
2023/02/11 07:14:22;;;;;;;8.37;5.40;;;5.40;99.90;;;;;;4978938;28;20939;-69
2023/02/11 07:16:48;;;;;;;7.97;5.63;;;5.60;99.90;;;;;;4983942;28;20170;-69
2023/02/11 07:19:14;;;;;;;14.30;5.33;;;5.60;99.90;;;;;;4981790;28;20217;-69
2023/02/11 07:21:41;;;;;;;7.93;4.80;;;5.60;99.90;;;;;;4979683;28;20648;-69
2023/02/11 07:24:09;;;;;;;9.63;5.27;;;5.90;99.90;;;;;;4998436;28;20186;-69
2023/02/11 07:26:36;;;;;;;10.27;5.00;;;6.00;99.90;;;;;;4983290;28;20186;-69
2023/02/11 07:29:02;;;;;;;7.77;5.67;;;6.00;99.90;;;;;;4983074;28;20220;-69
2023/02/11 07:31:32;;;;;;;8.87;5.30;;;6.00;99.90;;;;;;4983276;28;20193;-69
2023/02/11 07:34:00;;;;;;;8.87;5.30;;;6.30;99.90;;;;;;4979537;28;20229;-69
2023/02/11 07:36:30;;;;;;;7.20;5.13;;;6.40;99.90;;;;;;4988026;28;20186;-69
2023/02/11 07:38:57;;;;;;;6.50;5.37;;;6.40;99.90;;;;;;4983044;28;20224;-69
2023/02/11 07:41:26;;;;;;;7.30;4.80;;;6.20;99.90;;;;;;4986243;28;20201;-69
2023/02/11 07:43:53;;;;;;;8.60;5.33;;;6.20;99.90;;;;;;4982793;28;20214;-69
2023/02/11 07:46:23;;;;;;;9.50;5.03;;;6.30;99.90;;;;;;4981831;28;20232;-69
2023/02/11 07:48:50;;;;;;;9.50;5.07;;;6.40;99.90;;;;;;4986314;28;20233;-69
2023/02/11 07:51:21;;;;;;;10.50;5.27;;;6.40;99.90;;;;;;4980979;28;20182;-69
2023/02/11 07:53:48;;;;;;;13.37;6.23;;;6.50;99.90;;;;;;4986614;28;20185;-69
2023/02/11 07:56:16;;;;;;;7.97;5.83;;;6.60;99.90;;;;;;4978331;28;20240;-69
2023/02/11 07:58:42;;;;;;;9.63;5.60;;;6.60;99.90;;;;;;4976811;28;20221;-69
2023/02/11 08:01:17;;;;;;;7.80;5.17;;;6.60;99.90;;;;;;4982351;28;20189;-69
2023/02/11 08:03:44;;;;;;;9.37;5.40;;;6.60;99.90;;;;;;4984266;28;20205;-69
2023/02/11 08:06:14;;;;;;;6.70;5.07;;;6.70;99.90;;;;;;4974085;28;20188;-69
2023/02/11 08:08:42;;;;;;;9.33;5.03;;;6.80;99.90;;;;;;4995654;28;20249;-69
2023/02/11 08:11:15;;;;;;;7.97;4.87;;;7.00;99.90;;;;;;4981749;28;20208;-69
2023/02/11 08:13:42;;;;;;;5.30;4.37;;;7.00;99.90;;;;;;4974724;28;20802;-69
2023/02/11 08:16:15;;;;;;;11.07;4.73;;;7.00;99.90;;;;;;4978282;28;20209;-69
2023/02/11 08:18:42;;;;;;;5.20;4.43;;;7.20;99.90;;;;;;4977614;28;20567;-69
2023/02/11 08:21:09;;;;;;;6.90;4.83;;;7.40;99.90;;;;;;4993648;28;20189;-70
2023/02/11 08:23:38;;;;;;;10.93;4.90;;;7.50;99.90;;;;;;4975304;28;20246;-69
2023/02/11 08:26:09;;;;;;;5.73;4.67;;;7.60;99.90;;;;;;4961513;28;20189;-69
2023/02/11 08:28:38;;;;;;;8.80;4.40;;;7.50;99.90;;;;;;4977945;28;20193;-69
2023/02/11 08:31:15;;;;;;;6.37;3.97;;;7.60;99.90;;;;;;4980653;28;20177;-69
2023/02/11 08:33:41;;;;;;;7.10;4.13;;;7.60;99.90;;;;;;4981227;28;20279;-69
2023/02/11 08:36:23;;;;;;;11.10;4.73;;;7.60;99.90;;;;;;4985212;28;20252;-69
2023/02/11 08:38:49;;;;;;;9.80;4.73;;;7.50;99.90;;;;;;4980488;28;20196;-69
2023/02/11 08:41:16;;;;;;;9.80;4.30;;;7.60;99.90;;;;;;4983641;28;20194;-69
2023/02/11 08:43:44;;;;;;;5.93;4.17;;;7.40;99.90;;;;;;4994328;28;20853;-69
2023/02/11 08:46:18;;;;;;;8.77;4.70;;;7.10;99.90;;;;;;4981731;28;20185;-69
2023/02/11 08:48:46;;;;;;;10.27;4.90;;;7.00;99.90;;;;;;4986452;28;20196;-69
2023/02/11 08:51:30;;;;;;;7.83;4.20;;;7.20;99.90;;;;;;4970998;28;20184;-69
2023/02/11 08:53:58;;;;;;;9.43;4.07;;;7.20;99.90;;;;;;4983103;28;20185;-69
2023/02/11 08:56:25;;;;;;;7.80;4.33;;;7.20;99.90;;;;;;4982569;28;20198;-70
2023/02/11 08:58:53;;;;;;;8.40;5.07;;;7.60;99.90;;;;;;4983379;28;20220;-70
2023/02/11 09:01:27;;;;;;;13.00;5.30;;;7.80;99.90;;;;;;4980819;28;20189;-70
2023/02/11 09:03:54;;;;;;;7.70;4.53;;;7.60;99.90;;;;;;4973179;28;20222;-69
2023/02/11 09:06:21;;;;;;;7.20;4.80;;;7.60;99.90;;;;;;4984880;28;20185;-70
2023/02/11 09:08:52;;;;;;;7.87;4.50;;;7.60;99.90;;;;;;4983558;28;20188;-70
2023/02/11 09:11:25;;;;;;;8.57;4.80;;;7.80;99.90;;;;;;4984087;28;20178;-70
2023/02/11 09:13:51;;;;;;;6.20;4.43;;;7.80;99.90;;;;;;4965013;28;20547;-70
2023/02/11 09:16:22;;;;;;;12.57;4.70;;;8.00;99.90;;;;;;4976088;28;20182;-70
2023/02/11 09:18:49;;;;;;;7.73;4.63;;;8.10;99.90;;;;;;4990541;28;20185;-70
2023/02/11 09:21:18;;;;;;;10.67;5.83;;;8.10;99.90;;;;;;4990095;28;20200;-70
2023/02/11 09:23:46;;;;;;;8.63;4.87;;;8.20;99.90;;;;;;4980069;28;20218;-70
2023/02/11 09:26:25;;;;;;;8.63;4.43;;;8.20;99.90;;;;;;4978308;28;20189;-70
2023/02/11 09:28:51;;;;;;;7.00;4.50;;;8.30;99.90;;;;;;4974434;28;20590;-70
2023/02/11 09:31:21;;;;;;;9.97;4.37;;;8.40;99.90;;;;;;4975170;28;20189;-70
2023/02/11 09:33:52;;;;;;;10.40;5.17;;;8.10;99.90;;;;;;4980155;28;20294;-70
2023/02/11 09:36:33;;;;;;;7.27;4.73;;;7.90;99.90;;;;;;4975858;28;20185;-70
2023/02/11 09:39:01;;;;;;;11.37;4.50;;;7.90;99.90;;;;;;4980537;28;20669;-70
2023/02/11 09:42:33;;;;;;;7.87;4.43;;;8.10;99.90;;;;;;4982591;28;20707;-70
2023/02/11 09:45:02;;;;;;;8.60;4.80;;;8.20;99.90;;;;;;4972523;28;21841;-70
2023/02/11 09:47:35;;;;;;;8.07;4.70;;;8.30;99.90;;;;;;4985334;28;20673;-70
2023/02/11 09:50:11;;;;;;;9.70;4.60;;;8.50;99.90;;;;;;4977578;28;20191;-70
2023/02/11 09:53:05;;;;;;;6.97;4.30;;;8.50;99.90;;;;;;4983658;28;20868;-70
2023/02/11 09:55:58;;;;;;;7.33;4.63;;;8.50;99.90;;;;;;4976248;28;20192;-70
2023/02/11 09:58:32;;;;;;;6.93;4.93;;;8.70;99.90;;;;;;4969678;28;20480;-70
2023/02/11 10:01:37;;;;;;;9.90;5.07;;;8.70;99.90;;;;;;4973147;28;20730;-70
2023/02/11 10:04:18;;;;;;;9.83;5.03;;;8.70;99.90;;;;;;4979189;28;20208;-70
2023/02/11 10:07:09;;;;;;;8.20;4.80;;;8.70;99.90;;;;;;4982229;28;20185;-70
2023/02/11 10:09:53;;;;;;;8.97;4.63;;;8.70;99.90;;;;;;4980230;28;20411;-70
2023/02/11 10:12:38;;;;;;;9.13;5.10;;;8.60;99.90;;;;;;4995326;28;20212;-70
2023/02/11 10:15:49;;;;;;;8.90;4.27;;;8.90;99.90;;;;;;4981307;28;20925;-70
2023/02/11 10:18:18;;;;;;;12.40;5.17;;;8.80;99.90;;;;;;4979982;28;20194;-70
2023/02/11 10:20:53;;;;;;;7.97;4.67;;;8.80;99.90;;;;;;4978746;28;20618;-70
2023/02/11 10:23:25;;;;;;;10.27;5.00;;;8.80;99.90;;;;;;4980750;28;20937;-70
2023/02/11 10:25:56;;;;;;;8.10;4.67;;;8.80;99.90;;;;;;4981752;28;20194;-70
2023/02/11 10:28:35;;;;;;;8.53;4.40;;;8.80;99.90;;;;;;4978875;28;20193;-70
2023/02/11 10:31:07;;;;;;;8.77;4.57;;;9.00;99.90;;;;;;4981866;28;20190;-70
2023/02/11 10:34:00;;;;;;;9.80;5.10;;;9.10;99.90;;;;;;4982875;28;20181;-70
2023/02/11 10:36:35;;;;;;;5.77;4.73;;;9.20;99.90;;;;;;4978222;28;20189;-70
2023/02/11 10:39:14;;;;;;;9.23;4.60;;;9.30;99.90;;;;;;4976125;28;20197;-70
2023/02/11 10:41:51;;;;;;;10.80;4.67;;;9.40;99.90;;;;;;4977116;28;20190;-70
2023/02/11 10:44:52;;;;;;;11.87;4.90;;;9.50;99.90;;;;;;4978214;28;20200;-70
2023/02/11 10:47:27;;;;;;;9.20;4.50;;;9.50;99.90;;;;;;4975051;28;20611;-70
2023/02/11 10:49:54;;;;;;;8.90;5.03;;;9.70;99.90;;;;;;4979376;28;20886;-70
2023/02/11 10:52:27;;;;;;;8.20;4.60;;;9.60;99.90;;;;;;4981992;28;20190;-70
2023/02/11 10:55:15;;;;;;;9.03;4.77;;;9.80;99.90;;;;;;4977612;28;20209;-70
2023/02/11 10:57:54;;;;;;;9.67;4.60;;;10.30;99.90;;;;;;4980825;28;20730;-70
2023/02/11 11:00:37;;;;;;;7.63;4.50;;;10.50;99.90;;;;;;4981154;28;20193;-70
2023/02/11 11:03:20;;;;;;;6.30;4.33;;;10.30;99.90;;;;;;4975464;28;20213;-69
2023/02/11 11:06:00;;;;;;;11.47;4.40;;;10.40;99.90;;;;;;4978227;28;20554;-70
2023/02/11 11:08:49;;;;;;;8.07;4.53;;;10.60;99.90;;;;;;4978278;28;20189;-70
2023/02/11 11:11:22;;;;;;;5.97;4.17;;;10.40;99.90;;;;;;4979981;28;20320;-70
2023/02/11 11:13:52;;;;;;;5.37;3.40;;;10.60;99.90;;;;;;4980104;28;20655;-70
2023/02/11 11:16:24;;;;;;;5.23;3.63;;;10.70;99.90;;;;;;4981864;28;20255;-70
2023/02/11 11:19:14;;;;;;;5.03;3.73;;;11.00;99.90;;;;;;4980957;28;20252;-70
2023/02/11 11:21:55;;;;;;;8.47;3.90;;;11.20;99.90;;;;;;4986119;28;20284;-70
2023/02/11 11:24:33;;;;;;;5.40;4.10;;;11.50;99.90;;;;;;4981815;28;20197;-70
2023/02/11 11:27:04;;;;;;;7.77;4.20;;;11.50;99.90;;;;;;4981035;28;20201;-69
2023/02/11 11:29:47;;;;;;;12.67;4.00;;;11.30;99.90;;;;;;4980662;28;20177;-70
2023/02/11 11:32:25;;;;;;;9.03;4.10;;;10.90;99.90;;;;;;4990269;28;20335;-70
2023/02/11 11:35:01;;;;;;;6.13;4.50;;;10.50;99.90;;;;;;4982016;28;20919;-70
2023/02/11 11:37:35;;;;;;;7.53;4.30;;;10.20;99.90;;;;;;4976871;28;20193;-70
2023/02/11 11:40:26;;;;;;;7.47;4.00;;;10.20;99.90;;;;;;4989028;28;20205;-70
2023/02/11 11:43:22;;;;;;;5.23;3.80;;;10.20;99.90;;;;;;4988604;28;20240;-70
2023/02/11 11:45:58;;;;;;;6.27;4.13;;;10.30;99.90;;;;;;4972773;28;20586;-70
2023/02/11 11:48:38;;;;;;;10.43;4.13;;;10.00;99.90;;;;;;4959902;28;20268;-70
2023/02/11 11:51:11;;;;;;;11.03;4.33;;;10.00;99.90;;;;;;4959342;28;20236;-70
2023/02/11 11:53:52;;;;;;;6.80;4.33;;;9.70;99.90;;;;;;4981522;28;20197;-70
2023/02/11 11:56:25;;;;;;;7.80;4.20;;;9.70;99.90;;;;;;4982891;28;20186;-69
2023/02/11 11:58:53;;;;;;;6.73;4.37;;;9.80;99.90;;;;;;4975960;28;20244;-70
2023/02/11 12:02:02;;;;;;;9.37;3.90;;;9.70;99.90;;;;;;4966399;28;20196;-70
2023/02/11 12:04:48;;;;;;;7.90;4.07;;;9.50;99.90;;;;;;4977734;28;20299;-70
2023/02/11 12:07:26;;;;;;;8.40;4.33;;;9.90;99.90;;;;;;4976284;28;20209;-70
2023/02/11 12:10:13;;;;;;;8.80;4.03;;;9.60;99.90;;;;;;4979083;28;20284;-70
2023/02/11 12:13:12;;;;;;;9.67;4.73;;;9.30;99.90;;;;;;4978119;28;20214;-70
2023/02/11 12:16:03;;;;;;;9.57;4.60;;;9.40;99.90;;;;;;4977820;28;20227;-70
2023/02/11 12:19:02;;;;;;;5.60;3.70;;;9.30;99.90;;;;;;4977686;28;20224;-70
2023/02/11 12:22:17;;;;;;;10.03;4.40;;;9.40;99.90;;;;;;4978862;28;20518;-70
2023/02/11 12:25:18;;;;;;;5.63;3.90;;;9.70;99.90;;;;;;4979486;28;20193;-70
2023/02/11 12:28:09;;;;;;;5.27;3.80;;;9.80;99.90;;;;;;4978634;28;20252;-70
2023/02/11 12:30:59;;;;;;;13.73;4.20;;;9.60;99.90;;;;;;4979043;28;20860;-69
2023/02/11 12:34:42;;;;;;;5.70;4.00;;;10.10;99.90;;;;;;4983937;28;20216;-69
2023/02/11 12:37:41;;;;;;;6.57;4.07;;;10.00;99.90;;;;;;4954206;28;20237;-69
2023/02/11 12:40:53;;;;;;;9.53;4.13;;;9.90;99.90;;;;;;4956711;28;20971;-69
2023/02/11 12:43:42;;;;;;;6.73;3.93;;;9.60;99.90;;;;;;4964268;28;20723;-69
2023/02/11 12:46:30;;;;;;;6.67;4.30;;;9.70;99.90;;;;;;4976555;28;20186;-69
2023/02/11 12:49:34;;;;;;;6.23;4.20;;;9.70;99.90;;;;;;4961900;28;20189;-69
2023/02/11 12:52:29;;;;;;;6.63;3.97;;;9.50;99.90;;;;;;4959018;28;20301;-69
2023/02/11 12:55:10;;;;;;;6.67;4.20;;;9.30;99.90;;;;;;4984350;28;20211;-69
2023/02/11 12:57:40;;;;;;;6.37;3.80;;;9.10;99.90;;;;;;4982376;28;20316;-69
2023/02/11 13:00:17;;;;;;;5.43;3.50;;;9.20;99.90;;;;;;4981661;28;20498;-70
2023/02/11 13:02:47;;;;;;;7.83;4.10;;;9.20;99.90;;;;;;4975341;28;20201;-69
2023/02/11 13:05:44;;;;;;;4.77;3.90;;;9.40;99.90;;;;;;4978920;28;20190;-70
2023/02/11 13:08:31;;;;;;;7.23;3.80;;;9.30;99.90;;;;;;4976830;28;20295;-70
2023/02/11 13:11:04;;;;;;;6.07;3.87;;;9.30;99.90;;;;;;4973663;28;20809;-70
2023/02/11 13:13:59;;;;;;;5.57;3.93;;;9.30;99.90;;;;;;4981931;28;20196;-70
2023/02/11 13:16:47;;;;;;;6.97;4.17;;;9.30;99.90;;;;;;4979148;28;20187;-70
2023/02/11 13:19:17;;;;;;;5.43;4.00;;;9.40;99.90;;;;;;4974842;28;20688;-69
2023/02/11 13:21:55;;;;;;;12.07;3.50;;;9.20;99.90;;;;;;4975894;28;20438;-69
2023/02/11 13:24:50;;;;;;;9.53;4.33;;;9.00;99.90;;;;;;4977419;28;20189;-69
2023/02/11 13:27:57;;;;;;;8.10;4.10;;;8.90;99.90;;;;;;4975818;28;20252;-70
2023/02/11 13:30:45;;;;;;;5.67;3.67;;;8.70;99.90;;;;;;4977281;28;20336;-70
2023/02/11 13:33:31;;;;;;;6.30;3.70;;;8.80;99.90;;;;;;4975220;28;20182;-70
2023/02/11 13:35:58;;;;;;;6.20;3.93;;;8.80;99.90;;;;;;4976268;28;20716;-70